Ronnie Rogers — WDD2270 — position and weather

sailwx.info

Track history (hours):
 
Tides and Currents Weather Stations Pressure Air Temp Water Temp Dewpoint Dewpoint Depression Visibility Wind Speed Wind Dir Waves Ship Positions

Ronnie Rogers

Owner: Florida Marine Transporters, Inc., Mandeville, LA. More information available from US FCC via Universal Licensing System and Coast Guard Vessel Documentation Center.

Last reported at 2014-Nov-28 09:12 UTC. Time now 2014-Nov-29 02:20 UTC.
Position N 29°45' W 095°11'.

Length 29 m; draft 3 m.

Type: Towing. MMSI: 367113160.

Date/timePositionNaut miles runAvg speedWind from/ knotsBaromVisibWave heightAir tempDewpointWater temp
2014-Nov-28 09:12N 29°45' W 095°11'4 6.0
2014-Nov-28 08:32N 29°45' W 095°06'4 3.3
2014-Nov-28 07:28N 29°47' W 095°04'0 0.1
2014-Nov-28 06:33N 29°47' W 095°04'0 0.1
2014-Nov-28 05:33N 29°47' W 095°04'2 1.7
2014-Nov-28 04:33N 29°46' W 095°05'1 0.5
2014-Nov-28 02:23N 29°46' W 095°06'0 0.0
2014-Nov-27 20:33N 29°46' W 095°06'0 0.0
2014-Nov-27 19:30N 29°46' W 095°06'0 0.0
2014-Nov-27 18:33N 29°46' W 095°06'1 0.7
2014-Nov-27 17:33N 29°46' W 095°05'2 1.6
2014-Nov-27 16:33N 29°47' W 095°05'0 0.0
2014-Nov-27 15:33N 29°47' W 095°05'0 0.0
2014-Nov-27 14:12N 29°47' W 095°05'30 3.4
2014-Nov-27 05:27N 29°21' W 094°49'6 5.0
2014-Nov-27 04:19N 29°17' W 094°54'  
Track history (hours):
 
Tides and Currents Weather Stations Pressure Air Temp Water Temp Dewpoint Dewpoint Depression Visibility Wind Speed Wind Dir Waves Ship Positions

Ronnie Rogers

Owner: Florida Marine Transporters, Inc., Mandeville, LA. More information available from US FCC via Universal Licensing System and Coast Guard Vessel Documentation Center.

Last reported at 2014-Nov-28 09:12 UTC. Time now 2014-Nov-29 02:20 UTC.
Position N 29°45' W 095°11'.

Length 29 m; draft 3 m.

Type: Towing. MMSI: 367113160.

Date/timePositionNaut miles runAvg speedWind from/ knotsBaromVisibWave heightAir tempDewpointWater temp
2014-Nov-28 09:12N 29°45' W 095°11'4 6.0
2014-Nov-28 08:32N 29°45' W 095°06'4 3.3
2014-Nov-28 07:28N 29°47' W 095°04'0 0.1
2014-Nov-28 06:33N 29°47' W 095°04'0 0.1
2014-Nov-28 05:33N 29°47' W 095°04'2 1.7
2014-Nov-28 04:33N 29°46' W 095°05'1 0.5
2014-Nov-28 02:23N 29°46' W 095°06'0 0.0
2014-Nov-27 20:33N 29°46' W 095°06'0 0.0
2014-Nov-27 19:30N 29°46' W 095°06'0 0.0
2014-Nov-27 18:33N 29°46' W 095°06'1 0.7
2014-Nov-27 17:33N 29°46' W 095°05'2 1.6
2014-Nov-27 16:33N 29°47' W 095°05'0 0.0
2014-Nov-27 15:33N 29°47' W 095°05'0 0.0
2014-Nov-27 14:12N 29°47' W 095°05'30 3.4
2014-Nov-27 05:27N 29°21' W 094°49'6 5.0
2014-Nov-27 04:19N 29°17' W 094°54'  

Dump ship's entire track history